Time;durP1;ratioP1;P1;durP2;ratioP2;P2;SDS_P1;SDS_P2;PMS_P1;PMS_P2;Temp;Humidity;BMP_temperature;BMP_pressure;BME280_temperature;BME280_humidity;BME280_pressure;Samples;Min_cycle;Max_cycle;Signal;HPM_P1;HPM_P2
2021/07/09 00:02:06;;;;;;;3.50;3.20;;;17.10;99.90;;;;;;5062954;28;20196;-59
2021/07/09 00:04:32;;;;;;;4.47;4.07;;;17.40;99.90;;;;;;5065738;28;20173;-59
2021/07/09 00:06:58;;;;;;;4.10;3.80;;;17.00;99.90;;;;;;5066066;28;20183;-59
2021/07/09 00:09:25;;;;;;;3.80;3.50;;;17.00;99.90;;;;;;5056848;28;20205;-60
2021/07/09 00:11:53;;;;;;;4.38;4.07;;;17.20;99.90;;;;;;5058868;28;20443;-59
2021/07/09 00:14:31;;;;;;;3.80;3.45;;;17.20;99.90;;;;;;5054771;28;20178;-60
2021/07/09 00:16:57;;;;;;;4.53;3.75;;;16.70;99.90;;;;;;5064975;28;20181;-59
2021/07/09 00:19:24;;;;;;;4.87;3.80;;;17.20;99.90;;;;;;5055937;28;20224;-60
2021/07/09 00:21:50;;;;;;;3.97;3.65;;;17.00;99.90;;;;;;5067250;28;20556;-59
2021/07/09 00:24:16;;;;;;;4.53;4.13;;;17.10;99.90;;;;;;5060582;28;20239;-59
2021/07/09 00:26:42;;;;;;;4.13;3.83;;;16.90;99.90;;;;;;5063596;28;20514;-60
2021/07/09 00:29:08;;;;;;;4.23;3.80;;;17.20;99.90;;;;;;5053958;28;20678;-59
2021/07/09 00:31:34;;;;;;;4.17;3.77;;;17.10;99.90;;;;;;5063862;28;20553;-59
2021/07/09 00:34:05;;;;;;;4.60;4.25;;;17.20;99.90;;;;;;5066087;28;20537;-59
2021/07/09 00:36:33;;;;;;;4.40;4.10;;;17.30;99.90;;;;;;5054598;28;20174;-59
2021/07/09 00:39:00;;;;;;;4.75;4.35;;;17.50;99.90;;;;;;5066192;28;20226;-59
2021/07/09 00:41:26;;;;;;;4.30;3.90;;;17.50;99.90;;;;;;5056898;28;20181;-59
2021/07/09 00:43:52;;;;;;;4.20;3.80;;;17.50;99.90;;;;;;5057773;28;20177;-59
2021/07/09 00:46:31;;;;;;;4.83;4.37;;;17.60;99.90;;;;;;5066583;28;20310;-59
2021/07/09 00:48:56;;;;;;;5.50;4.68;;;17.40;99.90;;;;;;5057002;28;20213;-60
2021/07/09 00:51:22;;;;;;;4.90;4.30;;;17.40;99.90;;;;;;5063428;28;20192;-61
2021/07/09 00:53:48;;;;;;;4.37;4.07;;;17.60;99.90;;;;;;5063827;28;20189;-60
2021/07/09 00:56:13;;;;;;;4.50;4.10;;;17.40;99.90;;;;;;5067297;28;20192;-61
2021/07/09 00:58:39;;;;;;;5.10;4.70;;;17.60;99.90;;;;;;5056001;28;20529;-60
2021/07/09 01:01:05;;;;;;;4.57;4.17;;;17.30;99.90;;;;;;5054473;28;20332;-61
2021/07/09 01:03:30;;;;;;;8.00;4.33;;;17.60;99.90;;;;;;5058767;28;20188;-59
2021/07/09 01:05:56;;;;;;;4.30;4.00;;;17.40;99.90;;;;;;5053141;28;20189;-61
2021/07/09 01:08:21;;;;;;;5.20;4.70;;;17.10;99.90;;;;;;5056832;28;20191;-61
2021/07/09 01:10:48;;;;;;;4.97;4.47;;;17.00;99.90;;;;;;5057675;28;20209;-60
2021/07/09 01:13:14;;;;;;;5.80;5.18;;;17.10;99.90;;;;;;5058862;28;20265;-61
2021/07/09 01:15:40;;;;;;;5.55;5.10;;;17.10;99.90;;;;;;5056551;28;20238;-60
2021/07/09 01:18:06;;;;;;;5.60;5.10;;;17.00;99.90;;;;;;5055219;28;20233;-60
2021/07/09 01:20:31;;;;;;;5.40;5.00;;;17.20;99.90;;;;;;5056874;28;20263;-60
2021/07/09 01:22:58;;;;;;;6.10;5.60;;;17.20;99.90;;;;;;5066388;28;20627;-60
2021/07/09 01:25:26;;;;;;;6.15;5.63;;;17.10;99.90;;;;;;5062683;28;20200;-60
2021/07/09 01:27:57;;;;;;;5.97;5.47;;;17.10;99.90;;;;;;5061406;28;20188;-59
2021/07/09 01:30:23;;;;;;;6.70;5.72;;;17.40;99.90;;;;;;5061442;28;20229;-60
2021/07/09 01:32:50;;;;;;;4.68;4.28;;;16.80;99.90;;;;;;5067703;28;20246;-60
2021/07/09 01:35:17;;;;;;;6.13;5.45;;;16.90;99.90;;;;;;5058913;28;20201;-60
2021/07/09 01:37:57;;;;;;;6.10;5.50;;;17.10;99.90;;;;;;5064390;28;20289;-60
2021/07/09 01:40:23;;;;;;;6.38;5.88;;;16.80;99.90;;;;;;5060237;28;20212;-59
2021/07/09 01:42:49;;;;;;;5.82;5.32;;;16.90;99.90;;;;;;5066422;28;20526;-61
2021/07/09 01:45:14;;;;;;;5.90;5.40;;;16.80;99.90;;;;;;5061701;28;20180;-60
2021/07/09 01:47:40;;;;;;;7.87;5.83;;;16.60;99.90;;;;;;5068541;28;20189;-60
2021/07/09 01:50:06;;;;;;;5.90;5.40;;;16.70;99.90;;;;;;5063784;28;20563;-60
2021/07/09 01:52:32;;;;;;;5.40;4.80;;;16.90;99.90;;;;;;5067942;28;20955;-60
2021/07/09 01:54:59;;;;;;;6.53;5.82;;;16.80;99.90;;;;;;5063255;28;20255;-60
2021/07/09 01:57:26;;;;;;;5.70;5.20;;;16.60;99.90;;;;;;5059363;28;20186;-60
2021/07/09 01:59:52;;;;;;;5.40;4.95;;;16.70;99.90;;;;;;5055108;28;20330;-60
2021/07/09 02:02:18;;;;;;;5.20;4.80;;;16.70;99.90;;;;;;5059178;28;20297;-61
2021/07/09 02:04:55;;;;;;;5.00;4.60;;;16.70;99.90;;;;;;5062745;28;20245;-60
2021/07/09 02:07:23;;;;;;;4.78;4.38;;;16.60;99.90;;;;;;5059179;28;20184;-60
2021/07/09 02:09:51;;;;;;;4.05;3.72;;;16.80;99.90;;;;;;5059251;28;20246;-60
2021/07/09 02:12:20;;;;;;;4.60;4.20;;;16.70;99.90;;;;;;5056319;28;20190;-60
2021/07/09 02:14:47;;;;;;;4.28;3.88;;;16.80;99.90;;;;;;5064003;28;20189;-60
2021/07/09 02:17:14;;;;;;;4.30;4.00;;;16.70;99.90;;;;;;5061498;28;20185;-60
2021/07/09 02:19:41;;;;;;;3.80;3.47;;;16.50;99.90;;;;;;5060297;28;20209;-59
2021/07/09 02:22:12;;;;;;;4.93;4.53;;;16.80;99.90;;;;;;5062378;28;20563;-60
2021/07/09 02:24:40;;;;;;;4.47;4.10;;;16.60;99.90;;;;;;5064804;28;20185;-60
2021/07/09 02:27:06;;;;;;;4.35;3.90;;;16.50;99.90;;;;;;5061409;28;20231;-60
2021/07/09 02:29:34;;;;;;;4.70;4.30;;;16.60;99.90;;;;;;5067268;28;20263;-60
2021/07/09 02:32:00;;;;;;;5.40;4.82;;;16.70;99.90;;;;;;5069353;28;20200;-60
2021/07/09 02:34:27;;;;;;;4.82;4.43;;;16.70;99.90;;;;;;5061689;28;20288;-60
2021/07/09 02:36:53;;;;;;;4.75;4.35;;;16.90;99.90;;;;;;5060234;28;20186;-61
2021/07/09 02:39:20;;;;;;;3.93;3.63;;;16.60;99.90;;;;;;5062463;28;20812;-60
2021/07/09 02:41:45;;;;;;;4.47;4.15;;;16.70;99.90;;;;;;5057802;28;20450;-60
2021/07/09 02:44:11;;;;;;;3.50;3.30;;;16.60;99.90;;;;;;5064589;28;20666;-60
2021/07/09 02:46:37;;;;;;;4.47;3.87;;;16.60;99.90;;;;;;5062598;28;20177;-60
2021/07/09 02:49:03;;;;;;;4.53;4.17;;;16.60;99.90;;;;;;5057203;28;20284;-60
2021/07/09 02:51:29;;;;;;;7.82;4.40;;;16.20;99.90;;;;;;5056839;28;20189;-60
2021/07/09 02:53:54;;;;;;;5.00;4.37;;;16.60;99.90;;;;;;5062297;28;20546;-60
2021/07/09 02:56:20;;;;;;;4.60;4.30;;;16.30;99.90;;;;;;5064147;28;20250;-60
2021/07/09 02:58:45;;;;;;;4.60;4.20;;;16.50;99.90;;;;;;5064016;28;20578;-60
2021/07/09 03:01:11;;;;;;;9.90;9.00;;;16.70;99.90;;;;;;5060427;28;20275;-60
2021/07/09 03:03:37;;;;;;;4.97;4.17;;;16.60;99.90;;;;;;5062534;28;20293;-60
2021/07/09 03:06:02;;;;;;;5.27;4.77;;;16.70;99.90;;;;;;5068329;28;20290;-60
2021/07/09 03:08:28;;;;;;;4.77;4.43;;;16.80;99.90;;;;;;5061726;28;20542;-60
2021/07/09 03:10:53;;;;;;;5.63;4.60;;;16.30;99.90;;;;;;5053319;28;20189;-60
2021/07/09 03:13:19;;;;;;;5.10;4.30;;;16.30;99.90;;;;;;5066075;28;20242;-59
2021/07/09 03:15:45;;;;;;;6.00;5.40;;;16.40;99.90;;;;;;5064855;28;20209;-60
2021/07/09 03:18:10;;;;;;;4.40;4.00;;;16.50;99.90;;;;;;5063302;28;20188;-60
2021/07/09 03:20:36;;;;;;;4.63;4.23;;;16.40;99.90;;;;;;5054751;28;20355;-60
2021/07/09 03:23:02;;;;;;;5.00;4.23;;;16.60;99.90;;;;;;5054380;28;20651;-59
2021/07/09 03:25:28;;;;;;;4.70;4.22;;;16.40;99.90;;;;;;5064869;28;20177;-61
2021/07/09 03:27:53;;;;;;;4.83;4.53;;;16.60;99.90;;;;;;5065554;28;20183;-60
2021/07/09 03:30:19;;;;;;;5.47;4.80;;;16.50;99.90;;;;;;5059739;28;20192;-61
2021/07/09 03:32:45;;;;;;;5.00;4.50;;;16.50;99.90;;;;;;5064413;28;20188;-60
2021/07/09 03:35:11;;;;;;;6.53;5.03;;;16.90;99.90;;;;;;5055492;28;20231;-60
2021/07/09 03:37:38;;;;;;;5.80;5.40;;;16.70;99.90;;;;;;5058093;28;20439;-60
2021/07/09 03:40:06;;;;;;;4.75;4.35;;;16.90;99.90;;;;;;5058419;28;20618;-60
2021/07/09 03:42:31;;;;;;;4.90;4.50;;;16.40;99.90;;;;;;5066682;28;20180;-60
2021/07/09 03:44:57;;;;;;;5.87;5.37;;;16.60;99.90;;;;;;5060895;28;20181;-60
2021/07/09 03:47:23;;;;;;;7.23;4.43;;;16.80;99.90;;;;;;5062133;28;20170;-61
2021/07/09 03:49:48;;;;;;;5.00;4.60;;;16.80;99.90;;;;;;5064867;28;20224;-60
2021/07/09 03:52:14;;;;;;;5.80;5.30;;;16.80;99.90;;;;;;5061351;28;20685;-60
2021/07/09 03:54:40;;;;;;;6.60;6.00;;;16.70;99.90;;;;;;5054951;28;20185;-60
2021/07/09 03:57:06;;;;;;;4.93;4.10;;;16.80;99.90;;;;;;5053705;28;20463;-60
2021/07/09 03:59:32;;;;;;;5.10;4.60;;;16.80;99.90;;;;;;5054339;28;20594;-60
2021/07/09 04:01:58;;;;;;;5.57;4.53;;;16.80;99.90;;;;;;5061029;28;20196;-59
2021/07/09 04:04:23;;;;;;;5.20;4.60;;;16.80;99.90;;;;;;5062780;28;20187;-59
2021/07/09 04:06:49;;;;;;;6.63;5.60;;;16.80;99.90;;;;;;5063176;28;20268;-59
2021/07/09 04:09:15;;;;;;;6.73;5.30;;;16.80;99.90;;;;;;5060997;28;20201;-59
2021/07/09 04:11:40;;;;;;;6.00;4.40;;;16.80;99.90;;;;;;5054914;28;20189;-62
2021/07/09 04:14:07;;;;;;;5.10;4.60;;;16.60;99.90;;;;;;5055769;28;20193;-62
2021/07/09 04:16:32;;;;;;;5.28;4.75;;;16.60;99.90;;;;;;5055509;28;20642;-62
2021/07/09 04:18:58;;;;;;;6.07;4.80;;;16.80;99.90;;;;;;5057412;28;20200;-62
2021/07/09 04:21:24;;;;;;;5.73;5.03;;;16.70;99.90;;;;;;5058754;28;20186;-61
2021/07/09 04:23:49;;;;;;;4.80;4.40;;;16.70;99.90;;;;;;5060199;28;20186;-59
2021/07/09 04:26:15;;;;;;;4.23;3.83;;;16.70;99.90;;;;;;5054112;28;20185;-60
2021/07/09 04:28:41;;;;;;;9.33;5.17;;;16.70;99.90;;;;;;5057096;28;20266;-59
2021/07/09 04:31:06;;;;;;;5.10;4.57;;;16.80;99.90;;;;;;5054451;28;20440;-60
2021/07/09 04:33:32;;;;;;;7.13;4.67;;;16.80;99.90;;;;;;5060472;28;20216;-60
2021/07/09 04:35:58;;;;;;;4.53;4.13;;;16.70;99.90;;;;;;5055639;28;20181;-62
2021/07/09 04:38:23;;;;;;;5.20;4.10;;;16.90;99.90;;;;;;5052267;28;20328;-56
2021/07/09 04:40:49;;;;;;;4.27;3.83;;;16.70;99.90;;;;;;5051330;28;20208;-59
2021/07/09 04:43:15;;;;;;;4.30;4.00;;;16.80;99.90;;;;;;5053744;28;20669;-58
2021/07/09 04:45:40;;;;;;;5.00;4.43;;;16.60;99.90;;;;;;5054105;28;20177;-59
2021/07/09 04:48:06;;;;;;;4.23;3.93;;;16.60;99.90;;;;;;5054889;28;20274;-57
2021/07/09 04:50:33;;;;;;;5.00;4.60;;;16.90;99.90;;;;;;5062317;28;20438;-58
2021/07/09 04:52:59;;;;;;;4.68;4.28;;;16.80;99.90;;;;;;5057125;28;20218;-59
2021/07/09 04:55:24;;;;;;;5.53;5.03;;;16.60;99.90;;;;;;5056519;28;20181;-58
2021/07/09 04:57:50;;;;;;;4.23;3.90;;;16.60;99.90;;;;;;5062590;28;20180;-58
2021/07/09 05:00:16;;;;;;;4.93;4.43;;;16.80;99.90;;;;;;5065081;28;20204;-57
2021/07/09 05:02:42;;;;;;;4.53;4.13;;;16.80;99.90;;;;;;5058219;28;20543;-56
2021/07/09 05:05:13;;;;;;;4.20;3.80;;;16.80;99.90;;;;;;5054037;28;20212;-56
2021/07/09 05:07:39;;;;;;;4.47;4.18;;;16.70;99.90;;;;;;5053881;28;20196;-57
2021/07/09 05:10:05;;;;;;;4.83;4.43;;;16.90;99.90;;;;;;5053245;28;20207;-58
2021/07/09 05:12:31;;;;;;;4.30;4.00;;;16.80;99.90;;;;;;5059706;28;20280;-58
2021/07/09 05:14:57;;;;;;;4.63;4.03;;;16.80;99.90;;;;;;5058141;28;20280;-58
2021/07/09 05:17:22;;;;;;;4.17;3.87;;;17.00;99.90;;;;;;5058932;28;20233;-58
2021/07/09 05:19:48;;;;;;;4.10;3.80;;;16.90;99.90;;;;;;5056345;28;20286;-58
2021/07/09 05:22:14;;;;;;;7.23;4.23;;;17.00;99.90;;;;;;5055994;28;20261;-59
2021/07/09 05:24:39;;;;;;;4.70;4.30;;;17.00;99.90;;;;;;5055234;28;20440;-58
2021/07/09 05:27:06;;;;;;;4.10;3.50;;;17.10;99.90;;;;;;5054498;28;20559;-58
2021/07/09 05:29:32;;;;;;;4.20;3.80;;;16.90;99.90;;;;;;5054803;28;22229;-59
2021/07/09 05:31:58;;;;;;;4.37;3.97;;;17.10;99.90;;;;;;5056206;28;20177;-58
2021/07/09 05:34:24;;;;;;;4.85;4.45;;;16.70;99.90;;;;;;5060876;28;20448;-59
2021/07/09 05:36:50;;;;;;;4.00;3.67;;;17.00;99.90;;;;;;5056456;28;20178;-58
2021/07/09 05:39:16;;;;;;;4.70;4.30;;;17.00;99.90;;;;;;5053024;28;20554;-58
2021/07/09 05:41:44;;;;;;;4.33;3.93;;;16.90;99.90;;;;;;5057045;28;20273;-57
2021/07/09 05:44:13;;;;;;;4.15;3.85;;;16.90;99.90;;;;;;5053965;28;20178;-58
2021/07/09 05:46:39;;;;;;;4.13;3.83;;;17.10;99.90;;;;;;5055220;28;20245;-59
2021/07/09 05:49:05;;;;;;;4.27;3.97;;;17.00;99.90;;;;;;5055900;28;20458;-58
2021/07/09 05:51:31;;;;;;;4.93;4.43;;;17.10;99.90;;;;;;5058699;28;20685;-57
2021/07/09 05:53:56;;;;;;;5.00;4.50;;;17.10;99.90;;;;;;5062605;28;20448;-57
2021/07/09 05:56:22;;;;;;;4.00;3.70;;;17.00;99.90;;;;;;5087630;28;20182;-57
2021/07/09 05:58:48;;;;;;;6.90;5.70;;;17.00;99.90;;;;;;5058237;28;20316;-58
2021/07/09 06:01:13;;;;;;;5.20;4.50;;;17.30;99.90;;;;;;5058166;28;20666;-58
2021/07/09 06:03:39;;;;;;;6.10;5.47;;;17.00;99.90;;;;;;5063800;28;20650;-58
2021/07/09 06:06:04;;;;;;;4.97;4.53;;;17.30;99.90;;;;;;5062203;28;20177;-57
2021/07/09 06:08:30;;;;;;;5.50;5.00;;;17.20;99.90;;;;;;5065551;28;20637;-58
2021/07/09 06:10:57;;;;;;;4.77;4.37;;;17.20;99.90;;;;;;5057221;28;20244;-58
2021/07/09 06:13:23;;;;;;;4.45;4.05;;;17.10;99.90;;;;;;5063126;28;20633;-58
2021/07/09 06:15:48;;;;;;;4.87;4.37;;;17.10;99.90;;;;;;5059387;28;20199;-59
2021/07/09 06:18:14;;;;;;;4.93;4.53;;;17.20;99.90;;;;;;5059704;28;20208;-59
2021/07/09 06:20:40;;;;;;;5.97;5.37;;;17.30;99.90;;;;;;5060639;28;20204;-59
2021/07/09 06:23:06;;;;;;;6.63;6.03;;;17.20;99.90;;;;;;5053882;28;20204;-59
2021/07/09 06:25:31;;;;;;;5.30;4.80;;;17.30;99.90;;;;;;5060232;28;20176;-60
2021/07/09 06:27:57;;;;;;;5.70;5.10;;;17.20;99.90;;;;;;5059753;28;20178;-59
2021/07/09 06:30:23;;;;;;;5.60;5.10;;;17.30;99.90;;;;;;5056284;28;20288;-59
2021/07/09 06:32:48;;;;;;;4.83;4.40;;;17.20;99.90;;;;;;5061977;28;20643;-58
2021/07/09 06:35:14;;;;;;;5.10;4.67;;;17.30;99.90;;;;;;5055711;28;20192;-58
2021/07/09 06:37:40;;;;;;;5.00;4.50;;;16.90;99.90;;;;;;5061831;28;20224;-58
2021/07/09 06:40:07;;;;;;;5.47;5.07;;;17.30;99.90;;;;;;5056983;28;20213;-58
2021/07/09 06:42:33;;;;;;;5.50;5.00;;;17.20;99.90;;;;;;5058600;28;20192;-57
2021/07/09 06:44:59;;;;;;;5.37;4.87;;;17.00;99.90;;;;;;5054863;28;20180;-58
2021/07/09 06:47:24;;;;;;;5.80;5.10;;;17.20;99.90;;;;;;5061136;28;20286;-60
2021/07/09 06:49:50;;;;;;;8.13;7.20;;;17.10;99.90;;;;;;5065163;28;20201;-58
2021/07/09 06:52:16;;;;;;;7.43;6.05;;;16.90;99.90;;;;;;5066669;28;20266;-59
2021/07/09 06:54:42;;;;;;;5.03;4.63;;;17.10;99.90;;;;;;5058671;28;20235;-60
2021/07/09 06:57:07;;;;;;;5.10;4.70;;;17.30;99.90;;;;;;5054497;28;20431;-59
2021/07/09 06:59:33;;;;;;;6.00;4.70;;;17.20;99.90;;;;;;5060026;28;20213;-59
2021/07/09 07:01:59;;;;;;;4.70;4.30;;;17.20;99.90;;;;;;5064205;28;20280;-59
2021/07/09 07:04:25;;;;;;;4.90;4.40;;;17.40;99.90;;;;;;5056927;28;20178;-59
2021/07/09 07:06:51;;;;;;;4.80;4.45;;;17.30;99.90;;;;;;5060734;28;20177;-59
2021/07/09 07:09:18;;;;;;;5.35;4.95;;;17.50;99.90;;;;;;5057575;28;20201;-60
2021/07/09 07:11:44;;;;;;;5.15;4.70;;;17.40;99.90;;;;;;5055070;28;20191;-60
2021/07/09 07:14:10;;;;;;;8.93;5.32;;;17.70;99.90;;;;;;5060764;28;20309;-58
2021/07/09 07:16:35;;;;;;;5.97;5.37;;;17.40;99.90;;;;;;5060382;28;20290;-59
2021/07/09 07:19:01;;;;;;;5.47;4.97;;;17.50;99.90;;;;;;5055182;28;20464;-59
2021/07/09 07:21:27;;;;;;;4.80;4.40;;;17.70;99.90;;;;;;5062980;28;20439;-58
2021/07/09 07:23:53;;;;;;;5.00;4.50;;;17.90;99.90;;;;;;5058925;28;20528;-58
2021/07/09 07:26:18;;;;;;;5.03;4.53;;;18.00;99.90;;;;;;5059823;28;20177;-59
2021/07/09 07:28:44;;;;;;;4.20;3.90;;;18.10;99.90;;;;;;5059791;28;20575;-58
2021/07/09 07:31:10;;;;;;;4.77;4.27;;;18.30;99.90;;;;;;5057960;28;20498;-57
2021/07/09 07:33:38;;;;;;;4.00;3.70;;;18.50;99.90;;;;;;5056145;28;20725;-59
2021/07/09 07:36:04;;;;;;;4.10;3.80;;;18.60;99.90;;;;;;5057517;28;20554;-58
2021/07/09 07:38:29;;;;;;;4.40;4.00;;;18.70;99.90;;;;;;5054441;28;20201;-58
2021/07/09 07:40:55;;;;;;;4.33;4.03;;;18.90;99.90;;;;;;5064621;28;20473;-59
2021/07/09 07:43:21;;;;;;;4.53;4.10;;;19.00;99.90;;;;;;5055837;28;20189;-59
2021/07/09 07:45:47;;;;;;;4.90;4.50;;;19.20;99.90;;;;;;5051645;28;20188;-58
2021/07/09 07:48:13;;;;;;;4.90;4.50;;;19.30;99.90;;;;;;5066727;28;20441;-58
2021/07/09 07:50:38;;;;;;;4.77;4.30;;;19.10;99.90;;;;;;5059355;28;20568;-59
2021/07/09 07:53:04;;;;;;;5.33;4.90;;;19.20;99.90;;;;;;5064075;28;20589;-58
2021/07/09 07:55:30;;;;;;;5.13;4.80;;;19.40;99.90;;;;;;5058787;28;20730;-59
2021/07/09 07:57:56;;;;;;;4.97;4.50;;;19.30;99.90;;;;;;5060202;28;20216;-60
2021/07/09 08:00:21;;;;;;;6.57;4.33;;;19.30;99.90;;;;;;5061434;28;20483;-58
2021/07/09 08:02:47;;;;;;;5.60;5.10;;;19.50;99.90;;;;;;5057920;28;20173;-58
2021/07/09 08:05:13;;;;;;;6.53;5.73;;;19.70;99.90;;;;;;5055756;28;20177;-58
2021/07/09 08:07:40;;;;;;;5.35;4.95;;;20.00;99.90;;;;;;5054366;28;20178;-58
2021/07/09 08:10:07;;;;;;;4.57;4.18;;;20.20;99.90;;;;;;5056012;28;20259;-57
2021/07/09 08:12:32;;;;;;;4.80;4.30;;;20.40;99.90;;;;;;5057036;28;20275;-58
2021/07/09 08:14:58;;;;;;;5.13;4.70;;;20.70;99.90;;;;;;5052280;28;20264;-59
2021/07/09 08:17:24;;;;;;;5.47;4.33;;;20.90;99.90;;;;;;5057579;28;20209;-59
2021/07/09 08:19:50;;;;;;;4.50;4.10;;;21.20;99.90;;;;;;5055674;28;20215;-60
2021/07/09 08:22:15;;;;;;;12.20;11.10;;;21.40;99.90;;;;;;5053293;28;20466;-58
2021/07/09 08:24:41;;;;;;;5.73;5.23;;;21.60;99.90;;;;;;5061773;28;20638;-58
2021/07/09 08:27:07;;;;;;;4.73;4.33;;;22.00;99.90;;;;;;5051047;28;20177;-58
2021/07/09 08:29:32;;;;;;;4.20;3.90;;;22.10;99.90;;;;;;5054816;28;20215;-57
2021/07/09 08:31:58;;;;;;;5.60;3.70;;;22.80;99.90;;;;;;5062512;28;20188;-57
2021/07/09 08:34:24;;;;;;;4.77;4.40;;;23.60;99.90;;;;;;5052531;28;20555;-57
2021/07/09 08:36:50;;;;;;;4.70;4.40;;;23.70;99.90;;;;;;5057939;28;20513;-60
2021/07/09 08:39:16;;;;;;;4.17;3.87;;;23.90;99.90;;;;;;5059835;28;20463;-59
2021/07/09 08:41:47;;;;;;;4.03;3.73;;;24.80;99.90;;;;;;5060962;28;20838;-56
2021/07/09 08:44:14;;;;;;;5.30;4.07;;;24.50;99.20;;;;;;5054982;28;20429;-57
2021/07/09 08:46:41;;;;;;;7.87;7.27;;;24.30;99.80;;;;;;5052504;28;20979;-58
2021/07/09 08:49:15;;;;;;;4.30;4.00;;;24.20;99.60;;;;;;5059310;28;20492;-60
2021/07/09 08:51:41;;;;;;;4.33;4.00;;;23.90;99.90;;;;;;5062819;28;21262;-56
2021/07/09 08:54:15;;;;;;;4.60;4.27;;;24.10;99.20;;;;;;5068174;28;20435;-58
2021/07/09 08:56:41;;;;;;;4.30;4.00;;;23.60;99.80;;;;;;5060284;28;20760;-59
2021/07/09 08:59:07;;;;;;;5.30;4.60;;;23.70;99.50;;;;;;5054120;28;20455;-57
2021/07/09 09:01:53;;;;;;;5.20;3.97;;;23.80;99.90;;;;;;5059094;28;20447;-57
2021/07/09 09:04:34;;;;;;;4.73;4.33;;;23.80;99.20;;;;;;5058893;28;20459;-57
2021/07/09 09:07:01;;;;;;;5.00;4.70;;;23.30;99.90;;;;;;5058528;28;20427;-59
2021/07/09 09:09:26;;;;;;;5.53;5.10;;;23.70;99.90;;;;;;5056362;28;20479;-58
2021/07/09 09:12:19;;;;;;;6.40;5.53;;;24.10;99.40;;;;;;5064921;28;20886;-58
2021/07/09 09:14:49;;;;;;;4.80;4.37;;;23.80;99.80;;;;;;5058065;28;20193;-59
2021/07/09 09:17:27;;;;;;;4.20;3.80;;;23.60;99.60;;;;;;5059077;28;20482;-58
2021/07/09 09:20:16;;;;;;;6.00;4.73;;;23.40;99.00;;;;;;5055037;28;20514;-57
2021/07/09 09:22:48;;;;;;;7.03;5.37;;;23.50;99.50;;;;;;5064785;28;20515;-59
2021/07/09 09:25:14;;;;;;;4.47;4.17;;;23.50;99.90;;;;;;5062659;28;20517;-58
2021/07/09 09:27:40;;;;;;;6.00;5.00;;;23.30;99.20;;;;;;5066230;28;20432;-58
2021/07/09 09:30:14;;;;;;;6.50;4.73;;;23.50;99.70;;;;;;5064246;28;20454;-59
2021/07/09 09:32:47;;;;;;;4.57;4.27;;;23.40;99.90;;;;;;5057328;28;20435;-58
2021/07/09 09:35:21;;;;;;;4.73;4.33;;;23.40;98.80;;;;;;5064689;28;20618;-59
2021/07/09 09:37:53;;;;;;;6.30;5.73;;;23.30;99.40;;;;;;5055040;28;20443;-58
2021/07/09 09:40:20;;;;;;;5.40;5.00;;;23.40;99.20;;;;;;5058236;28;20476;-58
2021/07/09 09:42:46;;;;;;;6.27;5.03;;;23.40;99.70;;;;;;5055548;28;20430;-58
2021/07/09 09:45:12;;;;;;;5.87;5.10;;;23.50;99.70;;;;;;5058015;28;20431;-57
2021/07/09 09:47:38;;;;;;;5.20;4.80;;;23.30;99.40;;;;;;5058233;28;20189;-58
2021/07/09 09:50:08;;;;;;;5.60;5.10;;;23.30;98.90;;;;;;5057994;28;20216;-58
2021/07/09 09:52:42;;;;;;;4.70;4.30;;;23.20;98.80;;;;;;5059645;28;20442;-59
2021/07/09 09:55:15;;;;;;;5.50;5.00;;;23.00;98.40;;;;;;5059912;28;20427;-58
2021/07/09 09:57:42;;;;;;;5.22;4.88;;;23.00;98.60;;;;;;5058297;28;20435;-58
2021/07/09 10:00:28;;;;;;;5.80;5.30;;;23.00;97.70;;;;;;5056205;28;20230;-60
2021/07/09 10:02:54;;;;;;;5.40;4.93;;;23.10;98.50;;;;;;5055251;28;20440;-60
2021/07/09 10:05:20;;;;;;;5.10;4.70;;;23.40;98.00;;;;;;5057507;28;20982;-59
2021/07/09 10:07:46;;;;;;;4.70;4.40;;;23.80;97.80;;;;;;5057845;28;20811;-58
2021/07/09 10:10:14;;;;;;;5.47;5.07;;;24.30;96.10;;;;;;5066112;28;20469;-60
2021/07/09 10:12:42;;;;;;;5.53;5.03;;;24.40;95.80;;;;;;5060476;28;20435;-58
2021/07/09 10:15:08;;;;;;;4.80;4.40;;;24.50;96.20;;;;;;5055917;28;20892;-58
2021/07/09 10:17:37;;;;;;;5.27;4.87;;;24.90;95.50;;;;;;5063962;28;20435;-57
2021/07/09 10:20:04;;;;;;;5.13;4.77;;;24.90;95.60;;;;;;5058971;28;20476;-57
2021/07/09 10:22:29;;;;;;;5.23;4.63;;;25.50;95.60;;;;;;5053397;28;20833;-57
2021/07/09 10:24:58;;;;;;;5.07;4.67;;;26.20;93.00;;;;;;5064159;28;20450;-58
2021/07/09 10:27:27;;;;;;;5.37;4.87;;;27.10;91.20;;;;;;5059739;28;20594;-59
2021/07/09 10:29:54;;;;;;;5.57;5.07;;;26.80;90.30;;;;;;5057921;28;20483;-57
2021/07/09 10:32:30;;;;;;;6.20;5.70;;;27.10;90.20;;;;;;5051061;28;20572;-58
2021/07/09 10:34:56;;;;;;;5.60;5.10;;;27.00;90.30;;;;;;5059895;28;20605;-56
2021/07/09 10:37:28;;;;;;;4.93;4.53;;;26.60;90.70;;;;;;5065209;28;20544;-56
2021/07/09 10:40:19;;;;;;;9.83;6.17;;;26.00;91.50;;;;;;5054835;28;20218;-56
2021/07/09 10:42:47;;;;;;;7.43;6.83;;;25.40;91.90;;;;;;5059133;28;20443;-57
2021/07/09 10:45:19;;;;;;;8.43;7.57;;;24.70;93.20;;;;;;5054899;28;20439;-56
2021/07/09 10:47:54;;;;;;;7.57;6.97;;;24.50;93.90;;;;;;5059139;28;20432;-56
2021/07/09 10:50:26;;;;;;;7.67;6.80;;;24.70;94.20;;;;;;5059796;28;20527;-56
2021/07/09 10:53:02;;;;;;;7.33;6.73;;;25.70;92.00;;;;;;5057576;28;20439;-57
2021/07/09 10:55:27;;;;;;;7.83;7.13;;;26.80;90.40;;;;;;5056912;28;20845;-56
2021/07/09 10:58:16;;;;;;;7.30;6.70;;;27.00;89.40;;;;;;5061562;28;20444;-57
2021/07/09 11:00:57;;;;;;;7.00;6.37;;;27.40;85.70;;;;;;5064500;28;20201;-58
2021/07/09 11:03:42;;;;;;;8.13;7.43;;;27.20;85.80;;;;;;5066179;28;20564;-58
2021/07/09 11:06:19;;;;;;;7.50;7.00;;;27.20;87.50;;;;;;5057811;28;20530;-58
2021/07/09 11:08:51;;;;;;;8.50;7.80;;;27.50;82.30;;;;;;5056684;28;20465;-58
2021/07/09 11:11:48;;;;;;;8.13;7.53;;;26.90;85.60;;;;;;5057597;28;20630;-58
2021/07/09 11:14:36;;;;;;;7.40;6.80;;;26.30;88.90;;;;;;5061591;28;20924;-57
2021/07/09 11:17:12;;;;;;;8.03;7.33;;;26.00;87.30;;;;;;5059049;28;20438;-58
2021/07/09 11:19:37;;;;;;;8.67;7.97;;;25.80;87.20;;;;;;5061182;28;20986;-59
2021/07/09 11:22:13;;;;;;;7.90;7.30;;;26.00;89.10;;;;;;5053854;28;20442;-58
2021/07/09 11:24:55;;;;;;;7.63;6.93;;;26.40;87.30;;;;;;5062455;28;20199;-59
2021/07/09 11:27:24;;;;;;;7.77;7.17;;;26.90;86.30;;;;;;5053098;28;20952;-58
2021/07/09 11:29:50;;;;;;;8.70;7.90;;;26.80;85.00;;;;;;5061049;28;20471;-57
2021/07/09 11:32:21;;;;;;;10.33;9.13;;;26.30;87.90;;;;;;5057341;28;20438;-59
2021/07/09 11:34:48;;;;;;;10.40;9.50;;;25.60;91.10;;;;;;5064064;28;20200;-58
2021/07/09 11:37:19;;;;;;;11.60;10.47;;;25.30;95.10;;;;;;5055696;28;20441;-58
2021/07/09 11:39:49;;;;;;;10.10;9.20;;;25.00;97.40;;;;;;5053952;28;20467;-59
2021/07/09 11:42:20;;;;;;;10.00;9.20;;;24.70;97.60;;;;;;5058686;28;20438;-59
2021/07/09 11:44:55;;;;;;;11.70;10.70;;;24.50;99.20;;;;;;5052349;28;20552;-58
2021/07/09 11:47:22;;;;;;;10.03;9.17;;;24.80;99.90;;;;;;5057471;28;20762;-58
2021/07/09 11:49:50;;;;;;;8.87;8.03;;;25.50;99.90;;;;;;5058559;28;20473;-58
2021/07/09 11:52:24;;;;;;;8.47;7.63;;;25.60;94.00;;;;;;5064988;28;20500;-58
2021/07/09 11:54:52;;;;;;;9.87;9.00;;;26.10;94.40;;;;;;5056211;28;20523;-57
2021/07/09 11:57:29;;;;;;;9.33;8.60;;;26.20;94.60;;;;;;5063628;28;20480;-57
2021/07/09 11:59:57;;;;;;;10.50;9.63;;;25.90;94.60;;;;;;5059663;28;20457;-59
2021/07/09 12:02:25;;;;;;;11.73;10.67;;;25.40;95.10;;;;;;5048681;28;20447;-60
2021/07/09 12:04:51;;;;;;;13.40;12.30;;;24.60;95.60;;;;;;5056506;28;20464;-59
2021/07/09 12:07:20;;;;;;;13.50;12.30;;;24.00;98.00;;;;;;5062388;28;20427;-59
2021/07/09 12:09:47;;;;;;;11.10;10.10;;;23.70;98.10;;;;;;5058115;28;20535;-59
2021/07/09 12:12:14;;;;;;;9.80;9.00;;;23.60;98.00;;;;;;5053164;28;20821;-59
2021/07/09 12:14:50;;;;;;;11.33;10.37;;;23.40;96.60;;;;;;5063460;28;20439;-60
2021/07/09 12:17:16;;;;;;;9.10;8.40;;;23.20;98.50;;;;;;5052672;28;20462;-60
2021/07/09 12:20:07;;;;;;;10.60;9.70;;;23.30;99.20;;;;;;5056270;28;20979;-59
2021/07/09 12:22:39;;;;;;;10.70;9.90;;;23.30;97.80;;;;;;5054728;28;20216;-58
2021/07/09 12:25:09;;;;;;;11.20;9.10;;;23.00;97.40;;;;;;5060602;28;20519;-57
2021/07/09 12:27:36;;;;;;;9.93;9.03;;;23.10;98.00;;;;;;5056913;28;20431;-56
2021/07/09 12:30:14;;;;;;;14.30;10.90;;;23.30;99.60;;;;;;5060083;28;20463;-60
2021/07/09 12:32:47;;;;;;;8.90;8.10;;;23.40;99.70;;;;;;5059081;28;20493;-58
2021/07/09 12:35:14;;;;;;;9.73;8.93;;;23.80;96.80;;;;;;5061407;28;20466;-58
2021/07/09 12:37:40;;;;;;;10.40;9.50;;;24.10;97.20;;;;;;5060304;28;20444;-57
2021/07/09 12:40:14;;;;;;;10.37;9.50;;;24.30;97.20;;;;;;5060734;28;20496;-57
2021/07/09 12:42:40;;;;;;;9.07;8.37;;;24.60;97.20;;;;;;5054930;28;20431;-58
2021/07/09 12:45:06;;;;;;;8.90;8.10;;;24.70;94.50;;;;;;5056262;28;20438;-57
2021/07/09 12:47:47;;;;;;;7.30;6.70;;;24.40;93.70;;;;;;5054682;28;20208;-58
2021/07/09 12:50:14;;;;;;;7.50;6.90;;;24.40;93.40;;;;;;5050157;28;21109;-57